VXP931 KMYR-KILG
Flight info
| Callsign | VXP931 |
|---|---|
| Flight time | 1h 3m |
| Altitude | 37000 |
| Route | SARKY Q113 AARNN THHMP ARLFT2 |
| Aircraft | B737/M-SDE2E3FGHIRWXY/LB1 |
Departure
| Time | 2026-04-29 16:28 |
|---|---|
| Airport | Myrtle Beach International Airport (KMYR) |
Arrival
| Time | 2026-04-29 17:31 |
|---|---|
| Airport | Wilmington Airport (KILG) |
| Time | Latitude | Longitude | Altitude | Speed | Heading |
|---|---|---|---|---|---|
| 2026-04-29 15:54 | 33.67972 | -78.92429 | 25 ft | 0 kts | 9° |
| 2026-04-29 16:19 | 33.67959 | -78.92431 | 25 ft | 2 kts | 353° |
| 2026-04-29 16:20 | 33.67945 | -78.92426 | 25 ft | 2 kts | 337° |
| 2026-04-29 16:20 | 33.67931 | -78.92417 | 25 ft | 2 kts | 319° |
| 2026-04-29 16:20 | 33.67921 | -78.92404 | 25 ft | 2 kts | 302° |
| 2026-04-29 16:20 | 33.67915 | -78.92387 | 25 ft | 2 kts | 285° |
| 2026-04-29 16:21 | 33.67913 | -78.92370 | 25 ft | 2 kts | 267° |
| 2026-04-29 16:21 | 33.67914 | -78.92359 | 26 ft | 1 kts | 257° |
| 2026-04-29 16:21 | 33.67915 | -78.92355 | 25 ft | 0 kts | 257° |
| 2026-04-29 16:23 | 33.67915 | -78.92356 | 25 ft | 2 kts | 257° |
| 2026-04-29 16:24 | 33.67904 | -78.92415 | 25 ft | 8 kts | 258° |
| 2026-04-29 16:24 | 33.67892 | -78.92482 | 25 ft | 8 kts | 258° |
| 2026-04-29 16:24 | 33.67879 | -78.92570 | 25 ft | 12 kts | 270° |
| 2026-04-29 16:24 | 33.67942 | -78.92622 | 25 ft | 11 kts | 348° |
| 2026-04-29 16:25 | 33.68036 | -78.92645 | 25 ft | 14 kts | 348° |
| 2026-04-29 16:25 | 33.68171 | -78.92680 | 25 ft | 26 kts | 348° |
| 2026-04-29 16:25 | 33.68359 | -78.92731 | 25 ft | 27 kts | 347° |
| 2026-04-29 16:25 | 33.68550 | -78.92773 | 25 ft | 27 kts | 349° |
| 2026-04-29 16:26 | 33.68736 | -78.92821 | 25 ft | 27 kts | 348° |
| 2026-04-29 16:26 | 33.68919 | -78.92866 | 24 ft | 25 kts | 353° |
| 2026-04-29 16:26 | 33.69091 | -78.92866 | 23 ft | 24 kts | 346° |
| 2026-04-29 16:26 | 33.69253 | -78.92911 | 22 ft | 20 kts | 346° |
| 2026-04-29 16:27 | 33.69266 | -78.93034 | 22 ft | 16 kts | 257° |
| 2026-04-29 16:27 | 33.69225 | -78.93143 | 22 ft | 12 kts | 190° |
| 2026-04-29 16:27 | 33.69100 | -78.93114 | 23 ft | 41 kts | 168° |
| 2026-04-29 16:27 | 33.68540 | -78.92973 | 25 ft | 118 kts | 169° |
| 2026-04-29 16:28 | 33.67524 | -78.92714 | 110 ft | 170 kts | 169° |
| 2026-04-29 16:28 | 33.66410 | -78.92419 | 1037 ft | 161 kts | 172° |
| 2026-04-29 16:28 | 33.65283 | -78.92087 | 1650 ft | 176 kts | 170° |
| 2026-04-29 16:28 | 33.64154 | -78.91784 | 2588 ft | 158 kts | 177° |
| 2026-04-29 16:29 | 33.63106 | -78.91661 | 3164 ft | 160 kts | 195° |
| 2026-04-29 16:29 | 33.62231 | -78.92401 | 3683 ft | 157 kts | 251° |
| 2026-04-29 16:29 | 33.62172 | -78.93649 | 4385 ft | 155 kts | 274° |
| 2026-04-29 16:29 | 33.62214 | -78.95042 | 4745 ft | 178 kts | 270° |
| 2026-04-29 16:30 | 33.62442 | -78.96558 | 5241 ft | 195 kts | 293° |
| 2026-04-29 16:30 | 33.63481 | -78.97716 | 5690 ft | 225 kts | 332° |
| 2026-04-29 16:30 | 33.65044 | -78.98077 | 6564 ft | 233 kts | 347° |
| 2026-04-29 16:30 | 33.66732 | -78.98367 | 7050 ft | 252 kts | 343° |
| 2026-04-29 16:31 | 33.68479 | -78.98852 | 7642 ft | 266 kts | 340° |
| 2026-04-29 16:31 | 33.70315 | -78.99464 | 8346 ft | 277 kts | 339° |
| 2026-04-29 16:31 | 33.72181 | -79.00099 | 9304 ft | 279 kts | 339° |
| 2026-04-29 16:31 | 33.74033 | -79.00723 | 10228 ft | 282 kts | 339° |
| 2026-04-29 16:32 | 33.75977 | -79.01376 | 10852 ft | 297 kts | 339° |
| 2026-04-29 16:32 | 33.78023 | -79.02062 | 11448 ft | 313 kts | 339° |
| 2026-04-29 16:32 | 33.80153 | -79.02773 | 12236 ft | 322 kts | 340° |
| 2026-04-29 16:32 | 33.82328 | -79.03496 | 13155 ft | 326 kts | 340° |
| 2026-04-29 16:33 | 33.86771 | -79.04964 | 14938 ft | 335 kts | 340° |
| 2026-04-29 16:33 | 33.89030 | -79.05695 | 15841 ft | 339 kts | 340° |
| 2026-04-29 16:33 | 33.91309 | -79.06457 | 16771 ft | 341 kts | 339° |
| 2026-04-29 16:34 | 33.93586 | -79.07225 | 17632 ft | 344 kts | 340° |
| 2026-04-29 16:34 | 33.95943 | -79.08025 | 18433 ft | 350 kts | 339° |
| 2026-04-29 16:34 | 33.98284 | -79.08817 | 19308 ft | 352 kts | 340° |
| 2026-04-29 16:34 | 34.00660 | -79.09616 | 20090 ft | 356 kts | 340° |
| 2026-04-29 16:35 | 34.03053 | -79.10419 | 20833 ft | 360 kts | 340° |
| 2026-04-29 16:35 | 34.05479 | -79.11231 | 21537 ft | 364 kts | 340° |
| 2026-04-29 16:35 | 34.07926 | -79.12051 | 22263 ft | 367 kts | 340° |
| 2026-04-29 16:35 | 34.10436 | -79.12893 | 22962 ft | 371 kts | 340° |
| 2026-04-29 16:36 | 34.12927 | -79.13729 | 23650 ft | 374 kts | 340° |
| 2026-04-29 16:36 | 34.15464 | -79.14582 | 24248 ft | 379 kts | 340° |
| 2026-04-29 16:36 | 34.18033 | -79.15446 | 24868 ft | 383 kts | 339° |
| 2026-04-29 16:36 | 34.20625 | -79.16318 | 25484 ft | 387 kts | 339° |
| 2026-04-29 16:37 | 34.23230 | -79.17197 | 25997 ft | 392 kts | 339° |
| 2026-04-29 16:37 | 34.25873 | -79.18089 | 26596 ft | 395 kts | 339° |
| 2026-04-29 16:37 | 34.28552 | -79.18995 | 27160 ft | 399 kts | 339° |
| 2026-04-29 16:37 | 34.30346 | -79.19602 | 27494 ft | 402 kts | 338° |
| 2026-04-29 16:38 | 34.33953 | -79.20823 | 28271 ft | 405 kts | 338° |
| 2026-04-29 16:38 | 34.36748 | -79.21719 | 28683 ft | 414 kts | 341° |
| 2026-04-29 16:38 | 34.39617 | -79.22314 | 29124 ft | 425 kts | 348° |
| 2026-04-29 16:38 | 34.42609 | -79.22346 | 29614 ft | 437 kts | 358° |
| 2026-04-29 16:39 | 34.45661 | -79.21732 | 30229 ft | 445 kts | 7° |
| 2026-04-29 16:39 | 34.48647 | -79.20628 | 30656 ft | 455 kts | 14° |
| 2026-04-29 16:39 | 34.51586 | -79.19122 | 31117 ft | 462 kts | 19° |
| 2026-04-29 16:39 | 34.54480 | -79.17369 | 31643 ft | 465 kts | 21° |
| 2026-04-29 16:40 | 34.57347 | -79.15517 | 32126 ft | 468 kts | 22° |
| 2026-04-29 16:40 | 34.60234 | -79.13624 | 32480 ft | 474 kts | 22° |
| 2026-04-29 16:40 | 34.63139 | -79.11729 | 32999 ft | 474 kts | 22° |
| 2026-04-29 16:40 | 34.66078 | -79.09835 | 33311 ft | 479 kts | 21° |
| 2026-04-29 16:41 | 34.69058 | -79.07935 | 33864 ft | 479 kts | 21° |
| 2026-04-29 16:41 | 34.72079 | -79.06030 | 34282 ft | 483 kts | 21° |
| 2026-04-29 16:41 | 34.75026 | -79.04184 | 35110 ft | 476 kts | 20° |
| 2026-04-29 16:41 | 34.78025 | -79.02310 | 35973 ft | 470 kts | 20° |
| 2026-04-29 16:42 | 34.80983 | -79.00472 | 36562 ft | 468 kts | 20° |
| 2026-04-29 16:42 | 34.83928 | -78.98652 | 36917 ft | 470 kts | 20° |
| 2026-04-29 16:42 | 34.89891 | -78.94975 | 36920 ft | 469 kts | 20° |
| 2026-04-29 16:43 | 34.95791 | -78.91334 | 36926 ft | 471 kts | 19° |
| 2026-04-29 16:43 | 35.01655 | -78.87704 | 36919 ft | 469 kts | 20° |
| 2026-04-29 16:44 | 35.07543 | -78.84060 | 36924 ft | 470 kts | 19° |
| 2026-04-29 16:44 | 35.13337 | -78.80468 | 36964 ft | 472 kts | 19° |
| 2026-04-29 16:45 | 35.19184 | -78.76838 | 36964 ft | 471 kts | 20° |
| 2026-04-29 16:45 | 35.25087 | -78.73160 | 36958 ft | 470 kts | 19° |
| 2026-04-29 16:46 | 35.30946 | -78.69506 | 36961 ft | 474 kts | 19° |
| 2026-04-29 16:46 | 35.36859 | -78.65815 | 36959 ft | 474 kts | 19° |
| 2026-04-29 16:47 | 35.42827 | -78.62080 | 36959 ft | 474 kts | 19° |
| 2026-04-29 16:47 | 35.48763 | -78.58361 | 36961 ft | 475 kts | 19° |
| 2026-04-29 16:48 | 35.54712 | -78.54630 | 36951 ft | 476 kts | 19° |
| 2026-04-29 16:48 | 35.60618 | -78.50912 | 36944 ft | 474 kts | 19° |
| 2026-04-29 16:49 | 35.66555 | -78.47173 | 36946 ft | 476 kts | 19° |
| 2026-04-29 16:49 | 35.72464 | -78.43449 | 36945 ft | 477 kts | 19° |
| 2026-04-29 16:50 | 35.78456 | -78.39665 | 36937 ft | 478 kts | 19° |
| 2026-04-29 16:50 | 35.84425 | -78.35890 | 36940 ft | 476 kts | 19° |
| 2026-04-29 16:51 | 35.90375 | -78.32124 | 36949 ft | 477 kts | 19° |
| 2026-04-29 16:51 | 35.96315 | -78.28359 | 36949 ft | 479 kts | 20° |
| 2026-04-29 16:52 | 36.02281 | -78.24566 | 36951 ft | 480 kts | 20° |
| 2026-04-29 16:52 | 36.08239 | -78.20775 | 36945 ft | 480 kts | 20° |
| 2026-04-29 16:53 | 36.14170 | -78.16992 | 36945 ft | 481 kts | 20° |
| 2026-04-29 16:53 | 36.20149 | -78.13176 | 36937 ft | 481 kts | 20° |
| 2026-04-29 16:54 | 36.26096 | -78.09371 | 36937 ft | 480 kts | 20° |
| 2026-04-29 16:54 | 36.32028 | -78.05569 | 36934 ft | 482 kts | 20° |
| 2026-04-29 16:55 | 36.38027 | -78.01720 | 36934 ft | 481 kts | 19° |
| 2026-04-29 16:55 | 36.43996 | -77.97961 | 36937 ft | 480 kts | 18° |
| 2026-04-29 16:56 | 36.50052 | -77.94226 | 36936 ft | 482 kts | 19° |
| 2026-04-29 16:56 | 36.56065 | -77.90522 | 36941 ft | 482 kts | 18° |
| 2026-04-29 16:57 | 36.62103 | -77.86787 | 36953 ft | 481 kts | 18° |
| 2026-04-29 16:57 | 36.68144 | -77.83032 | 36953 ft | 481 kts | 19° |
| 2026-04-29 16:58 | 36.74165 | -77.79283 | 36957 ft | 483 kts | 19° |
| 2026-04-29 16:58 | 36.80214 | -77.75506 | 36949 ft | 480 kts | 19° |
| 2026-04-29 16:59 | 36.86240 | -77.71732 | 36936 ft | 485 kts | 18° |
| 2026-04-29 16:59 | 36.92307 | -77.67924 | 36931 ft | 481 kts | 19° |
| 2026-04-29 17:00 | 36.98333 | -77.64135 | 36927 ft | 484 kts | 19° |
| 2026-04-29 17:00 | 37.04379 | -77.60333 | 36925 ft | 485 kts | 19° |
| 2026-04-29 17:01 | 37.10418 | -77.56525 | 36937 ft | 483 kts | 18° |
| 2026-04-29 17:01 | 37.16456 | -77.52711 | 36942 ft | 484 kts | 18° |
| 2026-04-29 17:02 | 37.22493 | -77.48889 | 36946 ft | 484 kts | 18° |
| 2026-04-29 17:02 | 37.28568 | -77.45043 | 36947 ft | 486 kts | 18° |
| 2026-04-29 17:03 | 37.34573 | -77.41230 | 36949 ft | 485 kts | 18° |
| 2026-04-29 17:03 | 37.40651 | -77.37363 | 36946 ft | 486 kts | 18° |
| 2026-04-29 17:04 | 37.46696 | -77.33435 | 36947 ft | 490 kts | 21° |
| 2026-04-29 17:04 | 37.52438 | -77.28622 | 36949 ft | 498 kts | 31° |
| 2026-04-29 17:05 | 37.57823 | -77.23051 | 36952 ft | 503 kts | 34° |
| 2026-04-29 17:05 | 37.63151 | -77.17230 | 36949 ft | 501 kts | 34° |
| 2026-04-29 17:06 | 37.68459 | -77.11421 | 36939 ft | 504 kts | 34° |
| 2026-04-29 17:06 | 37.73757 | -77.05660 | 36944 ft | 500 kts | 33° |
| 2026-04-29 17:07 | 37.78273 | -77.00780 | 36947 ft | 502 kts | 33° |
| 2026-04-29 17:07 | 37.84457 | -76.94105 | 36952 ft | 502 kts | 33° |
| 2026-04-29 17:08 | 37.89831 | -76.88305 | 36952 ft | 503 kts | 33° |
| 2026-04-29 17:08 | 37.95107 | -76.82599 | 36952 ft | 501 kts | 33° |
| 2026-04-29 17:09 | 38.00447 | -76.76813 | 36944 ft | 500 kts | 33° |
| 2026-04-29 17:09 | 38.05808 | -76.70997 | 36939 ft | 502 kts | 33° |
| 2026-04-29 17:10 | 38.11161 | -76.65157 | 36956 ft | 504 kts | 34° |
| 2026-04-29 17:10 | 38.16351 | -76.59097 | 36966 ft | 505 kts | 37° |
| 2026-04-29 17:11 | 38.21433 | -76.52895 | 36971 ft | 505 kts | 37° |
| 2026-04-29 17:11 | 38.23957 | -76.49798 | 36793 ft | 502 kts | 37° |
| 2026-04-29 17:11 | 38.26462 | -76.46724 | 36395 ft | 495 kts | 37° |
| 2026-04-29 17:12 | 38.28957 | -76.43669 | 35858 ft | 492 kts | 36° |
| 2026-04-29 17:12 | 38.31439 | -76.40645 | 35196 ft | 493 kts | 36° |
| 2026-04-29 17:12 | 38.33931 | -76.37618 | 34482 ft | 493 kts | 36° |
| 2026-04-29 17:12 | 38.35614 | -76.35576 | 33981 ft | 494 kts | 36° |
| 2026-04-29 17:13 | 38.38930 | -76.31557 | 33026 ft | 495 kts | 37° |
| 2026-04-29 17:13 | 38.41458 | -76.28549 | 32240 ft | 494 kts | 36° |
| 2026-04-29 17:13 | 38.44069 | -76.25736 | 31420 ft | 492 kts | 32° |
| 2026-04-29 17:13 | 38.46802 | -76.23062 | 30654 ft | 489 kts | 30° |
| 2026-04-29 17:14 | 38.49534 | -76.20526 | 30077 ft | 483 kts | 29° |
| 2026-04-29 17:14 | 38.52276 | -76.18031 | 29436 ft | 477 kts | 29° |
| 2026-04-29 17:14 | 38.54965 | -76.15595 | 28821 ft | 472 kts | 29° |
| 2026-04-29 17:14 | 38.57610 | -76.13192 | 28202 ft | 467 kts | 30° |
| 2026-04-29 17:15 | 38.60280 | -76.10764 | 27556 ft | 460 kts | 28° |
| 2026-04-29 17:15 | 38.63007 | -76.08869 | 26693 ft | 442 kts | 15° |
| 2026-04-29 17:15 | 38.65954 | -76.07797 | 25695 ft | 430 kts | 4° |
| 2026-04-29 17:15 | 38.68874 | -76.07231 | 24810 ft | 420 kts | 0° |
| 2026-04-29 17:16 | 38.71756 | -76.06828 | 23875 ft | 415 kts | 360° |
| 2026-04-29 17:16 | 38.74618 | -76.06434 | 22962 ft | 410 kts | 1° |
| 2026-04-29 17:16 | 38.77400 | -76.05988 | 22187 ft | 404 kts | 2° |
| 2026-04-29 17:16 | 38.80187 | -76.05473 | 21333 ft | 399 kts | 3° |
| 2026-04-29 17:17 | 38.82930 | -76.04908 | 20496 ft | 394 kts | 4° |
| 2026-04-29 17:17 | 38.85611 | -76.04315 | 19680 ft | 389 kts | 4° |
| 2026-04-29 17:17 | 38.88254 | -76.03703 | 18880 ft | 384 kts | 5° |
| 2026-04-29 17:17 | 38.90878 | -76.03079 | 18102 ft | 377 kts | 5° |
| 2026-04-29 17:18 | 38.93427 | -76.02467 | 17276 ft | 373 kts | 6° |
| 2026-04-29 17:18 | 38.95988 | -76.01849 | 16376 ft | 371 kts | 7° |
| 2026-04-29 17:18 | 38.98495 | -76.01244 | 15468 ft | 369 kts | 7° |
| 2026-04-29 17:18 | 39.01018 | -76.00633 | 14644 ft | 366 kts | 8° |
| 2026-04-29 17:19 | 39.03512 | -76.00026 | 13771 ft | 364 kts | 9° |
| 2026-04-29 17:19 | 39.06031 | -75.99410 | 12945 ft | 360 kts | 9° |
| 2026-04-29 17:19 | 39.08466 | -75.98815 | 12227 ft | 354 kts | 9° |
| 2026-04-29 17:19 | 39.10865 | -75.98228 | 11469 ft | 350 kts | 9° |
| 2026-04-29 17:20 | 39.13277 | -75.97638 | 10708 ft | 345 kts | 9° |
| 2026-04-29 17:20 | 39.15601 | -75.97069 | 10214 ft | 332 kts | 9° |
| 2026-04-29 17:20 | 39.17829 | -75.96526 | 10108 ft | 316 kts | 9° |
| 2026-04-29 17:20 | 39.19973 | -75.96003 | 10035 ft | 301 kts | 8° |
| 2026-04-29 17:21 | 39.21983 | -75.95512 | 9811 ft | 292 kts | 8° |
| 2026-04-29 17:21 | 39.23988 | -75.95024 | 9435 ft | 291 kts | 8° |
| 2026-04-29 17:21 | 39.25974 | -75.94543 | 9072 ft | 288 kts | 9° |
| 2026-04-29 17:21 | 39.27954 | -75.94060 | 8723 ft | 282 kts | 9° |
| 2026-04-29 17:22 | 39.29899 | -75.93582 | 8367 ft | 280 kts | 9° |
| 2026-04-29 17:22 | 39.31819 | -75.93109 | 8018 ft | 278 kts | 9° |
| 2026-04-29 17:22 | 39.33706 | -75.92645 | 7672 ft | 271 kts | 8° |
| 2026-04-29 17:22 | 39.35564 | -75.92188 | 7334 ft | 264 kts | 8° |
| 2026-04-29 17:23 | 39.37366 | -75.91746 | 7014 ft | 258 kts | 8° |
| 2026-04-29 17:23 | 39.39106 | -75.91316 | 6711 ft | 252 kts | 8° |
| 2026-04-29 17:23 | 39.40826 | -75.90891 | 6405 ft | 248 kts | 8° |
| 2026-04-29 17:23 | 39.42510 | -75.90478 | 6101 ft | 244 kts | 8° |
| 2026-04-29 17:24 | 39.44170 | -75.90067 | 5802 ft | 240 kts | 9° |
| 2026-04-29 17:24 | 39.45826 | -75.89656 | 5498 ft | 237 kts | 9° |
| 2026-04-29 17:24 | 39.47440 | -75.89257 | 5212 ft | 232 kts | 10° |
| 2026-04-29 17:24 | 39.49036 | -75.88864 | 4914 ft | 234 kts | 10° |
| 2026-04-29 17:25 | 39.50638 | -75.88467 | 4623 ft | 230 kts | 10° |
| 2026-04-29 17:25 | 39.52192 | -75.88081 | 4341 ft | 228 kts | 11° |
| 2026-04-29 17:25 | 39.53774 | -75.87689 | 4096 ft | 226 kts | 11° |
| 2026-04-29 17:25 | 39.55318 | -75.87312 | 3975 ft | 226 kts | 11° |
| 2026-04-29 17:26 | 39.56887 | -75.86926 | 3809 ft | 229 kts | 11° |
| 2026-04-29 17:26 | 39.58462 | -75.86538 | 3603 ft | 228 kts | 12° |
| 2026-04-29 17:26 | 39.60048 | -75.86141 | 3332 ft | 228 kts | 12° |
| 2026-04-29 17:26 | 39.61489 | -75.85413 | 3078 ft | 221 kts | 39° |
| 2026-04-29 17:27 | 39.62542 | -75.83981 | 2945 ft | 213 kts | 57° |
| 2026-04-29 17:27 | 39.63382 | -75.82378 | 2939 ft | 215 kts | 62° |
| 2026-04-29 17:27 | 39.64126 | -75.80679 | 2915 ft | 214 kts | 68° |
| 2026-04-29 17:27 | 39.64710 | -75.78922 | 2645 ft | 210 kts | 74° |
| 2026-04-29 17:28 | 39.65160 | -75.77138 | 2352 ft | 198 kts | 78° |
| 2026-04-29 17:28 | 39.65511 | -75.75507 | 2120 ft | 180 kts | 80° |
| 2026-04-29 17:28 | 39.65812 | -75.73985 | 1897 ft | 163 kts | 82° |
| 2026-04-29 17:28 | 39.66071 | -75.72617 | 1667 ft | 149 kts | 82° |
| 2026-04-29 17:29 | 39.66303 | -75.71353 | 1479 ft | 138 kts | 83° |
| 2026-04-29 17:29 | 39.66502 | -75.70138 | 1320 ft | 137 kts | 84° |
| 2026-04-29 17:29 | 39.66710 | -75.68932 | 1138 ft | 136 kts | 82° |
| 2026-04-29 17:29 | 39.66853 | -75.68127 | 1016 ft | 136 kts | 83° |
| 2026-04-29 17:30 | 39.67106 | -75.66520 | 828 ft | 133 kts | 86° |
| 2026-04-29 17:30 | 39.67248 | -75.65363 | 716 ft | 129 kts | 84° |
| 2026-04-29 17:30 | 39.67450 | -75.64187 | 519 ft | 134 kts | 82° |
| 2026-04-29 17:30 | 39.67652 | -75.62986 | 292 ft | 138 kts | 82° |
| 2026-04-29 17:31 | 39.67860 | -75.61761 | 98 ft | 138 kts | 81° |
| 2026-04-29 17:31 | 39.68038 | -75.60687 | 75 ft | 91 kts | 79° |
| 2026-04-29 17:31 | 39.68129 | -75.60158 | 73 ft | 44 kts | 78° |
| 2026-04-29 17:31 | 39.68181 | -75.59842 | 73 ft | 18 kts | 78° |
| 2026-04-29 17:32 | 39.68117 | -75.59763 | 74 ft | 13 kts | 170° |
| 2026-04-29 17:32 | 39.68032 | -75.59772 | 75 ft | 12 kts | 213° |
| 2026-04-29 17:32 | 39.67970 | -75.59842 | 76 ft | 11 kts | 220° |
| 2026-04-29 17:32 | 39.67909 | -75.59908 | 76 ft | 11 kts | 219° |
| 2026-04-29 17:33 | 39.67850 | -75.59972 | 76 ft | 10 kts | 219° |
| 2026-04-29 17:33 | 39.67794 | -75.60037 | 77 ft | 10 kts | 225° |
| 2026-04-29 17:33 | 39.67745 | -75.60080 | 77 ft | 6 kts | 171° |
| 2026-04-29 17:33 | 39.67710 | -75.60044 | 77 ft | 6 kts | 131° |
| 2026-04-29 17:34 | 39.67682 | -75.60001 | 78 ft | 5 kts | 130° |
| 2026-04-29 17:34 | 39.67655 | -75.59962 | 78 ft | 6 kts | 131° |
| 2026-04-29 17:34 | 39.67620 | -75.59950 | 78 ft | 5 kts | 206° |
| 2026-04-29 17:34 | 39.67587 | -75.59981 | 78 ft | 5 kts | 220° |
| 2026-04-29 17:35 | 39.67554 | -75.59973 | 78 ft | 4 kts | 129° |
| 2026-04-29 17:35 | 39.67537 | -75.59946 | 78 ft | 1 kts | 131° |
| 2026-04-29 17:35 | 39.67536 | -75.59946 | 78 ft | 0 kts | 131° |